sensor_id;sensor_type;location;lat;lon;timestamp;P1;durP1;ratioP1;P2;durP2;ratioP2
18544;SDS011;9402;51.460;7.276;2023-04-10T00:01:44;24.92;;;15.00;;
18544;SDS011;9402;51.460;7.276;2023-04-10T00:03:47;26.83;;;13.48;;
18544;SDS011;9402;51.460;7.276;2023-04-10T00:05:49;24.38;;;13.35;;
18544;SDS011;9402;51.460;7.276;2023-04-10T00:07:53;27.90;;;14.95;;
18544;SDS011;9402;51.460;7.276;2023-04-10T00:09:56;26.20;;;15.32;;
18544;SDS011;9402;51.460;7.276;2023-04-10T00:11:59;26.33;;;14.80;;
18544;SDS011;9402;51.460;7.276;2023-04-10T00:14:02;26.90;;;15.50;;
18544;SDS011;9402;51.460;7.276;2023-04-10T00:16:04;23.20;;;13.50;;
18544;SDS011;9402;51.460;7.276;2023-04-10T00:18:07;25.70;;;15.38;;
18544;SDS011;9402;51.460;7.276;2023-04-10T00:20:10;24.85;;;13.65;;
18544;SDS011;9402;51.460;7.276;2023-04-10T00:22:13;29.05;;;15.02;;
18544;SDS011;9402;51.460;7.276;2023-04-10T00:24:15;28.30;;;15.32;;
18544;SDS011;9402;51.460;7.276;2023-04-10T00:26:17;27.13;;;15.63;;
18544;SDS011;9402;51.460;7.276;2023-04-10T00:28:21;26.30;;;15.30;;
18544;SDS011;9402;51.460;7.276;2023-04-10T00:30:24;28.77;;;16.20;;
18544;SDS011;9402;51.460;7.276;2023-04-10T00:32:26;29.35;;;17.40;;
18544;SDS011;9402;51.460;7.276;2023-04-10T00:34:29;26.05;;;14.13;;
18544;SDS011;9402;51.460;7.276;2023-04-10T00:36:31;27.80;;;15.07;;
18544;SDS011;9402;51.460;7.276;2023-04-10T00:38:34;32.63;;;16.42;;
18544;SDS011;9402;51.460;7.276;2023-04-10T00:40:37;26.25;;;15.23;;
18544;SDS011;9402;51.460;7.276;2023-04-10T00:42:39;25.15;;;14.93;;
18544;SDS011;9402;51.460;7.276;2023-04-10T00:44:43;29.10;;;14.88;;
18544;SDS011;9402;51.460;7.276;2023-04-10T00:46:45;29.02;;;16.65;;
18544;SDS011;9402;51.460;7.276;2023-04-10T00:48:48;24.85;;;13.15;;
18544;SDS011;9402;51.460;7.276;2023-04-10T00:50:51;25.70;;;13.30;;
18544;SDS011;9402;51.460;7.276;2023-04-10T00:52:53;22.75;;;11.07;;
18544;SDS011;9402;51.460;7.276;2023-04-10T00:54:57;26.02;;;14.70;;
18544;SDS011;9402;51.460;7.276;2023-04-10T00:56:59;23.15;;;14.00;;
18544;SDS011;9402;51.460;7.276;2023-04-10T00:59:03;27.27;;;15.57;;
18544;SDS011;9402;51.460;7.276;2023-04-10T01:01:07;28.88;;;14.55;;
18544;SDS011;9402;51.460;7.276;2023-04-10T01:03:10;28.52;;;14.43;;
18544;SDS011;9402;51.460;7.276;2023-04-10T01:05:13;28.70;;;16.60;;
18544;SDS011;9402;51.460;7.276;2023-04-10T01:07:18;32.40;;;17.13;;
18544;SDS011;9402;51.460;7.276;2023-04-10T01:09:31;32.25;;;18.98;;
18544;SDS011;9402;51.460;7.276;2023-04-10T01:11:38;30.05;;;19.00;;
18544;SDS011;9402;51.460;7.276;2023-04-10T01:13:47;32.58;;;17.45;;
18544;SDS011;9402;51.460;7.276;2023-04-10T01:15:55;28.80;;;16.75;;
18544;SDS011;9402;51.460;7.276;2023-04-10T01:18:15;31.83;;;16.85;;
18544;SDS011;9402;51.460;7.276;2023-04-10T01:20:23;36.15;;;19.42;;
18544;SDS011;9402;51.460;7.276;2023-04-10T01:22:27;34.33;;;18.20;;
18544;SDS011;9402;51.460;7.276;2023-04-10T01:24:36;37.83;;;16.67;;
18544;SDS011;9402;51.460;7.276;2023-04-10T01:26:55;31.73;;;18.00;;
18544;SDS011;9402;51.460;7.276;2023-04-10T01:29:10;31.83;;;18.33;;
18544;SDS011;9402;51.460;7.276;2023-04-10T01:31:15;30.95;;;16.55;;
18544;SDS011;9402;51.460;7.276;2023-04-10T01:33:20;30.80;;;16.70;;
18544;SDS011;9402;51.460;7.276;2023-04-10T01:35:25;27.85;;;17.65;;
18544;SDS011;9402;51.460;7.276;2023-04-10T01:37:30;37.08;;;20.40;;
18544;SDS011;9402;51.460;7.276;2023-04-10T01:39:34;41.50;;;20.80;;
18544;SDS011;9402;51.460;7.276;2023-04-10T01:41:38;31.05;;;17.98;;
18544;SDS011;9402;51.460;7.276;2023-04-10T01:43:43;33.22;;;17.58;;
18544;SDS011;9402;51.460;7.276;2023-04-10T01:45:50;33.90;;;19.42;;
18544;SDS011;9402;51.460;7.276;2023-04-10T01:47:53;34.72;;;18.65;;
18544;SDS011;9402;51.460;7.276;2023-04-10T01:49:55;33.70;;;18.63;;
18544;SDS011;9402;51.460;7.276;2023-04-10T01:51:58;32.55;;;18.58;;
18544;SDS011;9402;51.460;7.276;2023-04-10T01:54:01;35.38;;;19.73;;
18544;SDS011;9402;51.460;7.276;2023-04-10T01:56:05;39.70;;;20.45;;
18544;SDS011;9402;51.460;7.276;2023-04-10T01:58:08;39.22;;;20.45;;
18544;SDS011;9402;51.460;7.276;2023-04-10T02:00:12;33.95;;;19.05;;
18544;SDS011;9402;51.460;7.276;2023-04-10T02:02:16;34.20;;;19.60;;
18544;SDS011;9402;51.460;7.276;2023-04-10T02:04:18;38.58;;;20.23;;
18544;SDS011;9402;51.460;7.276;2023-04-10T02:06:22;42.40;;;21.92;;
18544;SDS011;9402;51.460;7.276;2023-04-10T02:08:30;36.25;;;19.60;;
18544;SDS011;9402;51.460;7.276;2023-04-10T02:10:36;32.55;;;18.27;;
18544;SDS011;9402;51.460;7.276;2023-04-10T02:12:45;30.75;;;18.75;;
18544;SDS011;9402;51.460;7.276;2023-04-10T02:14:52;32.47;;;17.20;;
18544;SDS011;9402;51.460;7.276;2023-04-10T02:16:57;31.55;;;19.65;;
18544;SDS011;9402;51.460;7.276;2023-04-10T02:19:01;34.47;;;18.65;;
18544;SDS011;9402;51.460;7.276;2023-04-10T02:21:05;31.92;;;18.17;;
18544;SDS011;9402;51.460;7.276;2023-04-10T02:23:07;32.88;;;18.88;;
18544;SDS011;9402;51.460;7.276;2023-04-10T02:25:10;31.88;;;19.10;;
18544;SDS011;9402;51.460;7.276;2023-04-10T02:27:12;26.67;;;15.65;;
18544;SDS011;9402;51.460;7.276;2023-04-10T02:29:15;36.50;;;17.35;;
18544;SDS011;9402;51.460;7.276;2023-04-10T02:31:18;27.85;;;17.88;;
18544;SDS011;9402;51.460;7.276;2023-04-10T02:33:20;33.60;;;18.45;;
18544;SDS011;9402;51.460;7.276;2023-04-10T02:35:24;33.88;;;18.70;;
18544;SDS011;9402;51.460;7.276;2023-04-10T02:37:28;33.20;;;19.83;;
18544;SDS011;9402;51.460;7.276;2023-04-10T02:39:31;31.95;;;19.90;;
18544;SDS011;9402;51.460;7.276;2023-04-10T02:41:34;36.88;;;19.08;;
18544;SDS011;9402;51.460;7.276;2023-04-10T02:43:36;30.98;;;18.33;;
18544;SDS011;9402;51.460;7.276;2023-04-10T02:45:39;29.92;;;17.20;;
18544;SDS011;9402;51.460;7.276;2023-04-10T02:47:41;35.20;;;19.75;;
18544;SDS011;9402;51.460;7.276;2023-04-10T02:49:44;35.05;;;18.45;;
18544;SDS011;9402;51.460;7.276;2023-04-10T02:51:48;32.83;;;18.35;;
18544;SDS011;9402;51.460;7.276;2023-04-10T02:53:50;38.30;;;19.23;;
18544;SDS011;9402;51.460;7.276;2023-04-10T02:55:53;39.00;;;21.25;;
18544;SDS011;9402;51.460;7.276;2023-04-10T02:57:55;36.60;;;20.13;;
18544;SDS011;9402;51.460;7.276;2023-04-10T02:59:57;34.25;;;20.40;;
18544;SDS011;9402;51.460;7.276;2023-04-10T03:02:00;39.05;;;22.40;;
18544;SDS011;9402;51.460;7.276;2023-04-10T03:04:02;35.13;;;19.90;;
18544;SDS011;9402;51.460;7.276;2023-04-10T03:06:05;39.25;;;20.67;;
18544;SDS011;9402;51.460;7.276;2023-04-10T03:08:10;39.50;;;21.60;;
18544;SDS011;9402;51.460;7.276;2023-04-10T03:10:12;37.63;;;21.45;;
18544;SDS011;9402;51.460;7.276;2023-04-10T03:12:15;37.75;;;20.65;;
18544;SDS011;9402;51.460;7.276;2023-04-10T03:14:17;34.28;;;21.10;;
18544;SDS011;9402;51.460;7.276;2023-04-10T03:16:19;40.72;;;22.25;;
18544;SDS011;9402;51.460;7.276;2023-04-10T03:18:22;38.05;;;22.35;;
18544;SDS011;9402;51.460;7.276;2023-04-10T03:20:24;43.25;;;22.45;;
18544;SDS011;9402;51.460;7.276;2023-04-10T03:22:26;44.45;;;23.73;;
18544;SDS011;9402;51.460;7.276;2023-04-10T03:24:32;47.45;;;24.77;;
18544;SDS011;9402;51.460;7.276;2023-04-10T03:26:34;41.90;;;22.63;;
18544;SDS011;9402;51.460;7.276;2023-04-10T03:28:37;37.92;;;22.52;;
18544;SDS011;9402;51.460;7.276;2023-04-10T03:30:40;40.40;;;23.13;;
18544;SDS011;9402;51.460;7.276;2023-04-10T03:32:42;41.45;;;22.33;;
18544;SDS011;9402;51.460;7.276;2023-04-10T03:34:45;45.00;;;25.50;;
18544;SDS011;9402;51.460;7.276;2023-04-10T03:36:47;40.97;;;26.10;;
18544;SDS011;9402;51.460;7.276;2023-04-10T03:38:49;44.92;;;27.88;;
18544;SDS011;9402;51.460;7.276;2023-04-10T03:40:53;43.88;;;27.15;;
18544;SDS011;9402;51.460;7.276;2023-04-10T03:42:55;51.22;;;27.45;;
18544;SDS011;9402;51.460;7.276;2023-04-10T03:44:58;45.55;;;27.08;;
18544;SDS011;9402;51.460;7.276;2023-04-10T03:47:03;44.95;;;26.85;;
18544;SDS011;9402;51.460;7.276;2023-04-10T03:49:05;49.58;;;27.27;;
18544;SDS011;9402;51.460;7.276;2023-04-10T03:51:08;44.97;;;26.92;;
18544;SDS011;9402;51.460;7.276;2023-04-10T03:53:10;44.78;;;24.63;;
18544;SDS011;9402;51.460;7.276;2023-04-10T03:55:12;47.22;;;27.52;;
18544;SDS011;9402;51.460;7.276;2023-04-10T03:57:19;48.05;;;26.75;;
18544;SDS011;9402;51.460;7.276;2023-04-10T03:59:21;48.65;;;28.42;;
18544;SDS011;9402;51.460;7.276;2023-04-10T04:01:23;47.08;;;26.20;;
18544;SDS011;9402;51.460;7.276;2023-04-10T04:03:26;44.53;;;25.80;;
18544;SDS011;9402;51.460;7.276;2023-04-10T04:05:28;46.47;;;26.55;;
18544;SDS011;9402;51.460;7.276;2023-04-10T04:07:31;48.45;;;25.23;;
18544;SDS011;9402;51.460;7.276;2023-04-10T04:09:33;41.85;;;24.65;;
18544;SDS011;9402;51.460;7.276;2023-04-10T04:11:35;42.65;;;23.98;;
18544;SDS011;9402;51.460;7.276;2023-04-10T04:13:39;42.83;;;24.10;;
18544;SDS011;9402;51.460;7.276;2023-04-10T04:15:42;43.58;;;23.25;;
18544;SDS011;9402;51.460;7.276;2023-04-10T04:17:44;43.58;;;25.20;;
18544;SDS011;9402;51.460;7.276;2023-04-10T04:19:46;40.60;;;24.10;;
18544;SDS011;9402;51.460;7.276;2023-04-10T04:21:49;40.65;;;23.38;;
18544;SDS011;9402;51.460;7.276;2023-04-10T04:23:51;40.47;;;23.38;;
18544;SDS011;9402;51.460;7.276;2023-04-10T04:25:54;44.65;;;24.80;;
18544;SDS011;9402;51.460;7.276;2023-04-10T04:27:57;38.50;;;22.70;;
18544;SDS011;9402;51.460;7.276;2023-04-10T04:30:01;39.67;;;21.92;;
18544;SDS011;9402;51.460;7.276;2023-04-10T04:32:05;37.30;;;21.30;;
18544;SDS011;9402;51.460;7.276;2023-04-10T04:34:07;35.70;;;21.05;;
18544;SDS011;9402;51.460;7.276;2023-04-10T04:36:09;37.83;;;22.52;;
18544;SDS011;9402;51.460;7.276;2023-04-10T04:38:12;38.28;;;22.15;;
18544;SDS011;9402;51.460;7.276;2023-04-10T04:40:15;41.63;;;23.70;;
18544;SDS011;9402;51.460;7.276;2023-04-10T04:42:18;41.40;;;23.30;;
18544;SDS011;9402;51.460;7.276;2023-04-10T04:44:20;42.05;;;23.33;;
18544;SDS011;9402;51.460;7.276;2023-04-10T04:46:24;41.75;;;24.00;;
18544;SDS011;9402;51.460;7.276;2023-04-10T04:48:26;38.47;;;21.42;;
18544;SDS011;9402;51.460;7.276;2023-04-10T04:50:28;47.15;;;23.95;;
18544;SDS011;9402;51.460;7.276;2023-04-10T04:52:31;40.60;;;23.63;;
18544;SDS011;9402;51.460;7.276;2023-04-10T04:54:34;40.88;;;23.73;;
18544;SDS011;9402;51.460;7.276;2023-04-10T04:56:36;39.55;;;22.13;;
18544;SDS011;9402;51.460;7.276;2023-04-10T04:58:38;40.30;;;23.15;;
18544;SDS011;9402;51.460;7.276;2023-04-10T05:00:41;42.47;;;23.92;;
18544;SDS011;9402;51.460;7.276;2023-04-10T05:02:44;41.60;;;24.50;;
18544;SDS011;9402;51.460;7.276;2023-04-10T05:04:47;41.22;;;24.70;;
18544;SDS011;9402;51.460;7.276;2023-04-10T05:06:49;41.17;;;23.10;;
18544;SDS011;9402;51.460;7.276;2023-04-10T05:08:51;39.60;;;22.08;;
18544;SDS011;9402;51.460;7.276;2023-04-10T05:10:54;37.85;;;22.13;;
18544;SDS011;9402;51.460;7.276;2023-04-10T05:12:56;44.65;;;24.52;;
18544;SDS011;9402;51.460;7.276;2023-04-10T05:14:58;38.88;;;22.00;;
18544;SDS011;9402;51.460;7.276;2023-04-10T05:17:01;42.83;;;23.35;;
18544;SDS011;9402;51.460;7.276;2023-04-10T05:19:04;40.38;;;23.80;;
18544;SDS011;9402;51.460;7.276;2023-04-10T05:21:07;40.85;;;23.10;;
18544;SDS011;9402;51.460;7.276;2023-04-10T05:23:09;41.65;;;23.42;;
18544;SDS011;9402;51.460;7.276;2023-04-10T05:25:12;31.25;;;20.88;;
18544;SDS011;9402;51.460;7.276;2023-04-10T05:27:15;37.80;;;21.90;;
18544;SDS011;9402;51.460;7.276;2023-04-10T05:29:18;32.50;;;19.13;;
18544;SDS011;9402;51.460;7.276;2023-04-10T05:31:20;36.83;;;20.48;;
18544;SDS011;9402;51.460;7.276;2023-04-10T05:33:22;36.05;;;21.63;;
18544;SDS011;9402;51.460;7.276;2023-04-10T05:35:26;34.80;;;20.25;;
18544;SDS011;9402;51.460;7.276;2023-04-10T05:37:28;38.15;;;21.95;;
18544;SDS011;9402;51.460;7.276;2023-04-10T05:39:31;39.50;;;22.60;;
18544;SDS011;9402;51.460;7.276;2023-04-10T05:41:33;38.33;;;22.05;;
18544;SDS011;9402;51.460;7.276;2023-04-10T05:43:35;40.45;;;20.88;;
18544;SDS011;9402;51.460;7.276;2023-04-10T05:45:38;38.10;;;21.45;;
18544;SDS011;9402;51.460;7.276;2023-04-10T05:47:40;41.60;;;22.73;;
18544;SDS011;9402;51.460;7.276;2023-04-10T05:49:42;34.55;;;21.08;;
18544;SDS011;9402;51.460;7.276;2023-04-10T05:51:46;40.88;;;23.35;;
18544;SDS011;9402;51.460;7.276;2023-04-10T05:53:49;40.55;;;22.05;;
18544;SDS011;9402;51.460;7.276;2023-04-10T05:55:51;44.55;;;22.17;;
18544;SDS011;9402;51.460;7.276;2023-04-10T05:57:55;37.60;;;21.45;;
18544;SDS011;9402;51.460;7.276;2023-04-10T05:59:58;39.17;;;21.80;;
18544;SDS011;9402;51.460;7.276;2023-04-10T06:02:00;38.22;;;21.45;;
18544;SDS011;9402;51.460;7.276;2023-04-10T06:04:02;40.03;;;21.58;;
18544;SDS011;9402;51.460;7.276;2023-04-10T06:06:06;43.03;;;24.20;;
18544;SDS011;9402;51.460;7.276;2023-04-10T06:08:09;38.20;;;20.90;;
18544;SDS011;9402;51.460;7.276;2023-04-10T06:10:12;37.63;;;22.75;;
18544;SDS011;9402;51.460;7.276;2023-04-10T06:12:14;37.13;;;20.67;;
18544;SDS011;9402;51.460;7.276;2023-04-10T06:14:17;29.65;;;18.08;;
18544;SDS011;9402;51.460;7.276;2023-04-10T06:16:20;31.00;;;17.75;;
18544;SDS011;9402;51.460;7.276;2023-04-10T06:18:22;35.38;;;18.17;;
18544;SDS011;9402;51.460;7.276;2023-04-10T06:20:24;32.05;;;18.13;;
18544;SDS011;9402;51.460;7.276;2023-04-10T06:22:27;37.75;;;19.83;;
18544;SDS011;9402;51.460;7.276;2023-04-10T06:24:31;30.30;;;17.40;;
18544;SDS011;9402;51.460;7.276;2023-04-10T06:26:33;30.35;;;18.15;;
18544;SDS011;9402;51.460;7.276;2023-04-10T06:28:35;31.90;;;17.83;;
18544;SDS011;9402;51.460;7.276;2023-04-10T06:30:38;31.85;;;17.20;;
18544;SDS011;9402;51.460;7.276;2023-04-10T06:32:40;29.40;;;18.08;;
18544;SDS011;9402;51.460;7.276;2023-04-10T06:34:43;30.35;;;18.75;;
18544;SDS011;9402;51.460;7.276;2023-04-10T06:36:45;32.17;;;18.58;;
18544;SDS011;9402;51.460;7.276;2023-04-10T06:38:47;29.55;;;18.33;;
18544;SDS011;9402;51.460;7.276;2023-04-10T06:40:51;33.50;;;17.20;;
18544;SDS011;9402;51.460;7.276;2023-04-10T06:42:53;24.17;;;14.03;;
18544;SDS011;9402;51.460;7.276;2023-04-10T06:44:56;26.30;;;14.23;;
18544;SDS011;9402;51.460;7.276;2023-04-10T06:46:58;26.77;;;13.50;;
18544;SDS011;9402;51.460;7.276;2023-04-10T06:49:00;18.23;;;10.70;;
18544;SDS011;9402;51.460;7.276;2023-04-10T06:51:03;18.20;;;9.87;;
18544;SDS011;9402;51.460;7.276;2023-04-10T06:53:05;20.20;;;11.10;;
18544;SDS011;9402;51.460;7.276;2023-04-10T06:55:08;15.03;;;9.47;;
18544;SDS011;9402;51.460;7.276;2023-04-10T06:57:13;18.20;;;9.63;;
18544;SDS011;9402;51.460;7.276;2023-04-10T06:59:16;12.83;;;7.90;;
18544;SDS011;9402;51.460;7.276;2023-04-10T07:01:18;15.17;;;8.20;;
18544;SDS011;9402;51.460;7.276;2023-04-10T07:03:20;15.20;;;7.77;;
18544;SDS011;9402;51.460;7.276;2023-04-10T07:05:23;13.53;;;7.73;;
18544;SDS011;9402;51.460;7.276;2023-04-10T07:07:25;13.73;;;7.80;;
18544;SDS011;9402;51.460;7.276;2023-04-10T07:09:28;12.10;;;6.67;;
18544;SDS011;9402;51.460;7.276;2023-04-10T07:11:30;13.03;;;7.37;;
18544;SDS011;9402;51.460;7.276;2023-04-10T07:13:34;20.03;;;6.73;;
18544;SDS011;9402;51.460;7.276;2023-04-10T07:15:39;10.80;;;5.90;;
18544;SDS011;9402;51.460;7.276;2023-04-10T07:17:41;12.90;;;6.87;;
18544;SDS011;9402;51.460;7.276;2023-04-10T07:19:44;14.40;;;6.20;;
18544;SDS011;9402;51.460;7.276;2023-04-10T07:21:46;11.37;;;6.17;;
18544;SDS011;9402;51.460;7.276;2023-04-10T07:23:49;10.93;;;6.17;;
18544;SDS011;9402;51.460;7.276;2023-04-10T07:25:51;9.60;;;5.77;;
18544;SDS011;9402;51.460;7.276;2023-04-10T07:27:53;11.93;;;6.20;;
18544;SDS011;9402;51.460;7.276;2023-04-10T07:29:57;10.80;;;5.77;;
18544;SDS011;9402;51.460;7.276;2023-04-10T07:32:00;10.67;;;5.90;;
18544;SDS011;9402;51.460;7.276;2023-04-10T07:34:02;10.13;;;6.10;;
18544;SDS011;9402;51.460;7.276;2023-04-10T07:36:05;16.63;;;6.00;;
18544;SDS011;9402;51.460;7.276;2023-04-10T07:38:09;17.90;;;6.37;;
18544;SDS011;9402;51.460;7.276;2023-04-10T07:40:12;12.23;;;6.27;;
18544;SDS011;9402;51.460;7.276;2023-04-10T07:42:14;11.30;;;6.37;;
18544;SDS011;9402;51.460;7.276;2023-04-10T07:44:17;11.43;;;6.60;;
18544;SDS011;9402;51.460;7.276;2023-04-10T07:46:20;13.27;;;5.30;;
18544;SDS011;9402;51.460;7.276;2023-04-10T07:48:23;9.70;;;5.23;;
18544;SDS011;9402;51.460;7.276;2023-04-10T07:50:25;24.63;;;5.27;;
18544;SDS011;9402;51.460;7.276;2023-04-10T07:52:27;10.63;;;5.63;;
18544;SDS011;9402;51.460;7.276;2023-04-10T07:54:30;9.40;;;5.60;;
18544;SDS011;9402;51.460;7.276;2023-04-10T07:56:33;10.03;;;5.70;;
18544;SDS011;9402;51.460;7.276;2023-04-10T07:58:35;14.37;;;5.70;;
18544;SDS011;9402;51.460;7.276;2023-04-10T08:00:38;11.10;;;6.07;;
18544;SDS011;9402;51.460;7.276;2023-04-10T08:02:42;11.07;;;5.70;;
18544;SDS011;9402;51.460;7.276;2023-04-10T08:04:44;14.00;;;5.57;;
18544;SDS011;9402;51.460;7.276;2023-04-10T08:06:47;9.50;;;4.93;;
18544;SDS011;9402;51.460;7.276;2023-04-10T08:08:49;9.57;;;4.43;;
18544;SDS011;9402;51.460;7.276;2023-04-10T08:10:52;8.77;;;4.40;;
18544;SDS011;9402;51.460;7.276;2023-04-10T08:12:54;11.30;;;5.23;;
18544;SDS011;9402;51.460;7.276;2023-04-10T08:14:56;9.80;;;5.27;;
18544;SDS011;9402;51.460;7.276;2023-04-10T08:16:59;12.93;;;5.30;;
18544;SDS011;9402;51.460;7.276;2023-04-10T08:19:02;10.00;;;4.20;;
18544;SDS011;9402;51.460;7.276;2023-04-10T08:21:05;9.70;;;4.50;;
18544;SDS011;9402;51.460;7.276;2023-04-10T08:23:07;8.60;;;4.80;;
18544;SDS011;9402;51.460;7.276;2023-04-10T08:25:10;9.70;;;4.60;;
18544;SDS011;9402;51.460;7.276;2023-04-10T08:27:12;10.67;;;4.80;;
18544;SDS011;9402;51.460;7.276;2023-04-10T08:29:15;8.47;;;3.87;;
18544;SDS011;9402;51.460;7.276;2023-04-10T08:31:17;8.80;;;4.70;;
18544;SDS011;9402;51.460;7.276;2023-04-10T08:33:20;11.70;;;5.20;;
18544;SDS011;9402;51.460;7.276;2023-04-10T08:35:24;9.37;;;4.80;;
18544;SDS011;9402;51.460;7.276;2023-04-10T08:37:26;11.13;;;4.97;;
18544;SDS011;9402;51.460;7.276;2023-04-10T08:39:28;8.80;;;4.83;;
18544;SDS011;9402;51.460;7.276;2023-04-10T08:41:31;8.80;;;4.30;;
18544;SDS011;9402;51.460;7.276;2023-04-10T08:43:33;17.63;;;4.93;;
18544;SDS011;9402;51.460;7.276;2023-04-10T08:45:35;8.80;;;4.80;;
18544;SDS011;9402;51.460;7.276;2023-04-10T08:47:39;10.10;;;4.40;;
18544;SDS011;9402;51.460;7.276;2023-04-10T08:49:46;13.20;;;4.90;;
18544;SDS011;9402;51.460;7.276;2023-04-10T08:51:55;8.50;;;4.73;;
18544;SDS011;9402;51.460;7.276;2023-04-10T08:54:01;24.33;;;4.73;;
18544;SDS011;9402;51.460;7.276;2023-04-10T08:56:07;8.90;;;4.03;;
18544;SDS011;9402;51.460;7.276;2023-04-10T08:58:14;8.30;;;4.30;;
18544;SDS011;9402;51.460;7.276;2023-04-10T09:00:16;7.50;;;3.70;;
18544;SDS011;9402;51.460;7.276;2023-04-10T09:02:20;10.60;;;3.97;;
18544;SDS011;9402;51.460;7.276;2023-04-10T09:04:24;11.33;;;4.00;;
18544;SDS011;9402;51.460;7.276;2023-04-10T09:06:27;10.77;;;4.40;;
18544;SDS011;9402;51.460;7.276;2023-04-10T09:08:32;7.40;;;3.37;;
18544;SDS011;9402;51.460;7.276;2023-04-10T09:10:35;9.40;;;4.10;;
18544;SDS011;9402;51.460;7.276;2023-04-10T09:12:44;8.63;;;4.23;;
18544;SDS011;9402;51.460;7.276;2023-04-10T09:14:47;7.90;;;3.40;;
18544;SDS011;9402;51.460;7.276;2023-04-10T09:16:52;24.63;;;3.33;;
18544;SDS011;9402;51.460;7.276;2023-04-10T09:19:07;8.07;;;3.40;;
18544;SDS011;9402;51.460;7.276;2023-04-10T09:21:09;7.60;;;3.40;;
18544;SDS011;9402;51.460;7.276;2023-04-10T09:23:18;8.27;;;3.77;;
18544;SDS011;9402;51.460;7.276;2023-04-10T09:25:29;7.67;;;3.37;;
18544;SDS011;9402;51.460;7.276;2023-04-10T09:27:33;7.57;;;3.47;;
18544;SDS011;9402;51.460;7.276;2023-04-10T09:29:45;7.00;;;3.30;;
18544;SDS011;9402;51.460;7.276;2023-04-10T09:31:48;8.87;;;3.33;;
18544;SDS011;9402;51.460;7.276;2023-04-10T09:33:51;6.80;;;3.17;;
18544;SDS011;9402;51.460;7.276;2023-04-10T09:36:11;7.57;;;4.00;;
18544;SDS011;9402;51.460;7.276;2023-04-10T09:38:14;7.13;;;3.23;;
18544;SDS011;9402;51.460;7.276;2023-04-10T09:40:20;7.33;;;3.33;;
18544;SDS011;9402;51.460;7.276;2023-04-10T09:42:29;10.53;;;3.60;;
18544;SDS011;9402;51.460;7.276;2023-04-10T09:44:33;7.60;;;2.63;;
18544;SDS011;9402;51.460;7.276;2023-04-10T09:46:38;8.17;;;3.93;;
18544;SDS011;9402;51.460;7.276;2023-04-10T09:48:41;14.67;;;4.60;;
18544;SDS011;9402;51.460;7.276;2023-04-10T09:50:56;12.57;;;5.87;;
18544;SDS011;9402;51.460;7.276;2023-04-10T09:52:58;8.33;;;3.50;;
18544;SDS011;9402;51.460;7.276;2023-04-10T09:55:01;6.73;;;3.30;;
18544;SDS011;9402;51.460;7.276;2023-04-10T09:57:04;7.17;;;3.37;;
18544;SDS011;9402;51.460;7.276;2023-04-10T09:59:09;7.93;;;3.37;;
18544;SDS011;9402;51.460;7.276;2023-04-10T10:01:11;8.20;;;3.43;;
18544;SDS011;9402;51.460;7.276;2023-04-10T10:03:14;7.50;;;3.53;;
18544;SDS011;9402;51.460;7.276;2023-04-10T10:05:17;6.67;;;2.97;;
18544;SDS011;9402;51.460;7.276;2023-04-10T10:07:22;8.30;;;3.33;;
18544;SDS011;9402;51.460;7.276;2023-04-10T10:09:24;8.47;;;3.53;;
18544;SDS011;9402;51.460;7.276;2023-04-10T10:11:27;7.10;;;3.50;;
18544;SDS011;9402;51.460;7.276;2023-04-10T10:13:32;8.10;;;3.50;;
18544;SDS011;9402;51.460;7.276;2023-04-10T10:15:41;8.03;;;4.20;;
18544;SDS011;9402;51.460;7.276;2023-04-10T10:17:49;9.23;;;3.70;;
18544;SDS011;9402;51.460;7.276;2023-04-10T10:20:07;6.70;;;3.00;;
18544;SDS011;9402;51.460;7.276;2023-04-10T10:22:10;8.30;;;3.50;;
18544;SDS011;9402;51.460;7.276;2023-04-10T10:24:14;7.60;;;3.20;;
18544;SDS011;9402;51.460;7.276;2023-04-10T10:26:16;7.87;;;4.00;;
18544;SDS011;9402;51.460;7.276;2023-04-10T10:28:20;7.37;;;3.77;;
18544;SDS011;9402;51.460;7.276;2023-04-10T10:30:24;7.90;;;3.57;;
18544;SDS011;9402;51.460;7.276;2023-04-10T10:32:28;7.80;;;3.70;;
18544;SDS011;9402;51.460;7.276;2023-04-10T10:34:31;7.43;;;3.40;;
18544;SDS011;9402;51.460;7.276;2023-04-10T10:36:33;7.90;;;3.70;;
18544;SDS011;9402;51.460;7.276;2023-04-10T10:38:37;8.70;;;3.60;;
18544;SDS011;9402;51.460;7.276;2023-04-10T10:40:44;7.37;;;2.93;;
18544;SDS011;9402;51.460;7.276;2023-04-10T10:42:51;7.33;;;3.33;;
18544;SDS011;9402;51.460;7.276;2023-04-10T10:44:59;8.50;;;3.80;;
18544;SDS011;9402;51.460;7.276;2023-04-10T10:47:10;7.80;;;3.37;;
18544;SDS011;9402;51.460;7.276;2023-04-10T10:49:17;8.40;;;3.20;;
18544;SDS011;9402;51.460;7.276;2023-04-10T10:51:19;8.23;;;3.20;;
18544;SDS011;9402;51.460;7.276;2023-04-10T10:53:32;8.30;;;3.20;;
18544;SDS011;9402;51.460;7.276;2023-04-10T10:55:35;7.10;;;3.13;;
18544;SDS011;9402;51.460;7.276;2023-04-10T10:57:44;7.43;;;2.93;;
18544;SDS011;9402;51.460;7.276;2023-04-10T10:59:53;8.50;;;3.93;;
18544;SDS011;9402;51.460;7.276;2023-04-10T11:02:11;7.30;;;3.30;;
18544;SDS011;9402;51.460;7.276;2023-04-10T11:06:48;6.10;;;2.50;;
18544;SDS011;9402;51.460;7.276;2023-04-10T11:08:52;7.80;;;3.03;;
18544;SDS011;9402;51.460;7.276;2023-04-10T11:11:00;7.43;;;3.20;;
18544;SDS011;9402;51.460;7.276;2023-04-10T11:13:14;7.13;;;3.33;;
18544;SDS011;9402;51.460;7.276;2023-04-10T11:15:19;6.57;;;2.90;;
18544;SDS011;9402;51.460;7.276;2023-04-10T11:19:57;8.10;;;3.07;;
18544;SDS011;9402;51.460;7.276;2023-04-10T11:22:01;7.27;;;3.53;;
18544;SDS011;9402;51.460;7.276;2023-04-10T11:24:07;6.50;;;3.03;;
18544;SDS011;9402;51.460;7.276;2023-04-10T11:26:10;6.50;;;3.10;;
18544;SDS011;9402;51.460;7.276;2023-04-10T11:28:26;6.93;;;2.97;;
18544;SDS011;9402;51.460;7.276;2023-04-10T11:30:37;8.00;;;3.30;;
18544;SDS011;9402;51.460;7.276;2023-04-10T11:32:40;6.50;;;2.93;;
18544;SDS011;9402;51.460;7.276;2023-04-10T11:34:42;7.73;;;3.13;;
18544;SDS011;9402;51.460;7.276;2023-04-10T11:36:46;9.03;;;3.23;;
18544;SDS011;9402;51.460;7.276;2023-04-10T11:38:52;6.37;;;2.77;;
18544;SDS011;9402;51.460;7.276;2023-04-10T11:40:57;7.93;;;3.20;;
18544;SDS011;9402;51.460;7.276;2023-04-10T11:43:10;8.43;;;3.67;;
18544;SDS011;9402;51.460;7.276;2023-04-10T11:45:24;9.30;;;3.67;;
18544;SDS011;9402;51.460;7.276;2023-04-10T11:47:27;7.57;;;3.67;;
18544;SDS011;9402;51.460;7.276;2023-04-10T11:49:30;7.10;;;3.00;;
18544;SDS011;9402;51.460;7.276;2023-04-10T11:51:34;6.80;;;3.03;;
18544;SDS011;9402;51.460;7.276;2023-04-10T11:53:38;7.43;;;3.50;;
18544;SDS011;9402;51.460;7.276;2023-04-10T11:55:41;7.17;;;3.20;;
18544;SDS011;9402;51.460;7.276;2023-04-10T11:57:44;7.80;;;3.73;;
18544;SDS011;9402;51.460;7.276;2023-04-10T11:59:48;7.70;;;3.50;;
18544;SDS011;9402;51.460;7.276;2023-04-10T12:01:51;6.27;;;2.80;;
18544;SDS011;9402;51.460;7.276;2023-04-10T12:03:55;7.13;;;3.60;;
18544;SDS011;9402;51.460;7.276;2023-04-10T12:05:57;8.80;;;3.30;;
18544;SDS011;9402;51.460;7.276;2023-04-10T12:07:59;8.97;;;2.93;;
18544;SDS011;9402;51.460;7.276;2023-04-10T12:10:04;7.90;;;3.73;;
18544;SDS011;9402;51.460;7.276;2023-04-10T12:12:07;7.77;;;4.00;;
18544;SDS011;9402;51.460;7.276;2023-04-10T12:14:10;8.93;;;3.40;;
18544;SDS011;9402;51.460;7.276;2023-04-10T12:16:12;6.60;;;2.90;;
18544;SDS011;9402;51.460;7.276;2023-04-10T12:18:15;7.23;;;2.97;;
18544;SDS011;9402;51.460;7.276;2023-04-10T12:20:17;6.53;;;3.20;;
18544;SDS011;9402;51.460;7.276;2023-04-10T12:22:20;7.00;;;3.30;;
18544;SDS011;9402;51.460;7.276;2023-04-10T12:24:41;7.10;;;3.90;;
18544;SDS011;9402;51.460;7.276;2023-04-10T12:26:47;6.50;;;2.80;;
18544;SDS011;9402;51.460;7.276;2023-04-10T12:28:50;11.23;;;3.10;;
18544;SDS011;9402;51.460;7.276;2023-04-10T12:30:53;7.10;;;3.30;;